createdAt,value
2017-12-29T00:01:10.348Z,2.49
2017-12-29T00:07:14.967Z,2.54
2017-12-29T00:13:18.546Z,2.56
2017-12-29T00:19:23.140Z,2.59
2017-12-29T00:25:27.077Z,2.64
2017-12-29T00:31:30.565Z,2.63
2017-12-29T00:37:34.161Z,2.59
2017-12-29T00:43:37.758Z,2.39
2017-12-29T00:49:41.287Z,2.26
2017-12-29T00:55:44.818Z,2.13
2017-12-29T01:01:48.423Z,2.11
2017-12-29T01:07:52.305Z,2.14
2017-12-29T01:13:55.902Z,2.04
2017-12-29T01:19:59.425Z,1.99
2017-12-29T01:26:03.140Z,1.97
2017-12-29T01:32:06.926Z,1.93
2017-12-29T01:38:10.507Z,1.84
2017-12-29T01:44:14.785Z,1.72
2017-12-29T01:50:18.664Z,1.58
2017-12-29T01:56:22.370Z,1.54
2017-12-29T02:02:26.105Z,1.58
2017-12-29T02:08:29.885Z,1.62
2017-12-29T02:14:33.389Z,1.70
2017-12-29T02:20:37.227Z,1.79
2017-12-29T02:26:40.756Z,1.83
2017-12-29T02:32:44.524Z,1.82
2017-12-29T02:38:48.028Z,1.77
2017-12-29T02:44:52.414Z,1.71
2017-12-29T02:50:56.093Z,1.61
2017-12-29T02:56:59.575Z,1.40
2017-12-29T03:03:03.072Z,1.14
2017-12-29T03:09:06.737Z,1.13
2017-12-29T03:15:10.270Z,1.37
2017-12-29T03:21:14.703Z,1.33
2017-12-29T03:27:18.357Z,1.37
2017-12-29T03:33:22.451Z,1.25
2017-12-29T03:39:26.029Z,1.00
2017-12-29T03:45:30.477Z,0.81
2017-12-29T03:51:34.154Z,0.78
2017-12-29T03:57:38.394Z,0.97
2017-12-29T04:03:41.893Z,1.01
2017-12-29T04:09:45.544Z,0.99
2017-12-29T04:15:50.025Z,1.07
2017-12-29T04:21:54.636Z,1.33
2017-12-29T04:27:58.662Z,1.53
2017-12-29T04:34:02.229Z,1.60
2017-12-29T04:40:05.722Z,1.68
2017-12-29T04:46:09.195Z,1.69
2017-12-29T04:52:12.704Z,1.71
2017-12-29T04:58:16.201Z,1.77
2017-12-29T05:04:19.771Z,1.87
2017-12-29T05:10:23.889Z,1.94
2017-12-29T05:16:27.687Z,1.90
2017-12-29T05:22:31.198Z,1.94
2017-12-29T05:28:34.709Z,1.92
2017-12-29T05:34:38.282Z,1.95
2017-12-29T05:40:42.776Z,1.97
2017-12-29T05:46:46.557Z,1.99
2017-12-29T05:52:50.777Z,2.07
2017-12-29T05:58:54.537Z,2.16
2017-12-29T06:04:58.995Z,2.15
2017-12-29T06:11:02.710Z,2.21
2017-12-29T06:17:07.199Z,2.20
2017-12-29T06:23:10.690Z,2.22
2017-12-29T06:29:14.409Z,2.22
2017-12-29T06:35:18.042Z,2.20
2017-12-29T06:41:21.953Z,2.19
2017-12-29T06:47:25.907Z,2.14
2017-12-29T06:53:29.709Z,2.16
2017-12-29T06:59:34.110Z,2.18
2017-12-29T07:05:37.703Z,2.13
2017-12-29T07:11:41.313Z,2.16
2017-12-29T07:17:45.686Z,2.19
2017-12-29T07:23:50.059Z,2.19
2017-12-29T07:29:54.603Z,2.16
2017-12-29T07:35:58.485Z,2.19
2017-12-29T07:42:02.789Z,2.16
2017-12-29T07:48:06.284Z,2.14
2017-12-29T07:54:09.790Z,2.16
2017-12-29T08:00:13.504Z,2.05
2017-12-29T08:06:17.040Z,2.11
2017-12-29T08:12:20.714Z,2.06
2017-12-29T08:18:24.627Z,2.05
2017-12-29T08:24:28.099Z,2.09
2017-12-29T08:30:31.625Z,2.10
2017-12-29T08:36:35.131Z,2.21
2017-12-29T08:42:38.696Z,2.34
2017-12-29T08:48:42.322Z,2.41
2017-12-29T08:54:46.114Z,2.43
2017-12-29T09:00:49.604Z,2.58
2017-12-29T09:06:54.047Z,2.63
2017-12-29T09:12:59.054Z,2.59
2017-12-29T09:19:02.594Z,2.61
2017-12-29T09:25:06.121Z,2.62
2017-12-29T09:31:09.701Z,2.60
2017-12-29T09:37:13.290Z,2.51
2017-12-29T09:43:17.553Z,2.69
2017-12-29T09:49:22.675Z,2.93
2017-12-29T09:55:26.233Z,2.81
2017-12-29T10:01:29.738Z,2.70
2017-12-29T10:07:33.590Z,2.63
2017-12-29T10:13:37.185Z,2.57
2017-12-29T10:19:40.682Z,2.62
2017-12-29T10:25:44.500Z,2.59
2017-12-29T10:31:48.058Z,2.61
2017-12-29T10:37:53.087Z,2.57
2017-12-29T10:43:56.684Z,2.56
2017-12-29T10:50:00.281Z,2.61
2017-12-29T10:56:03.845Z,2.81
2017-12-29T11:02:07.363Z,2.75
2017-12-29T11:08:11.854Z,2.76
2017-12-29T11:14:15.465Z,2.77
2017-12-29T11:20:19.033Z,2.74
2017-12-29T11:26:23.599Z,2.77
2017-12-29T11:32:27.130Z,3.00
2017-12-29T11:38:30.650Z,3.21
2017-12-29T11:44:34.908Z,3.57
2017-12-29T11:50:38.477Z,3.30
2017-12-29T11:56:42.754Z,3.10
2017-12-29T12:02:46.262Z,3.00
2017-12-29T12:08:50.023Z,3.17
2017-12-29T12:14:54.339Z,3.23
2017-12-29T12:20:59.042Z,3.33
2017-12-29T12:27:02.627Z,3.43
2017-12-29T12:33:06.255Z,3.63
2017-12-29T12:39:09.855Z,3.63
2017-12-29T12:45:13.345Z,3.58
2017-12-29T12:51:17.597Z,3.68
2017-12-29T12:57:21.968Z,3.72
2017-12-29T13:03:26.647Z,3.54
2017-12-29T13:09:30.148Z,3.16
2017-12-29T13:15:33.698Z,3.07
2017-12-29T13:21:37.249Z,3.14
2017-12-29T13:27:40.865Z,3.28
2017-12-29T13:33:44.338Z,3.28
2017-12-29T13:39:48.759Z,3.32
2017-12-29T13:45:52.271Z,3.36
2017-12-29T13:51:56.051Z,3.45
2017-12-29T13:57:59.726Z,3.45
2017-12-29T14:04:03.532Z,3.37
2017-12-29T14:10:07.171Z,3.28
2017-12-29T14:16:10.658Z,3.16
2017-12-29T14:22:14.975Z,3.18
2017-12-29T14:28:18.570Z,3.26
2017-12-29T14:34:22.215Z,3.19
2017-12-29T14:40:25.818Z,3.14
2017-12-29T14:46:29.497Z,2.99
2017-12-29T14:52:33.215Z,2.75
2017-12-29T14:58:37.608Z,2.57
2017-12-29T15:04:41.164Z,2.43
2017-12-29T15:10:44.791Z,2.30
2017-12-29T15:16:49.127Z,2.07
2017-12-29T15:22:52.594Z,1.87
2017-12-29T15:28:56.442Z,1.78
2017-12-29T15:35:00.975Z,1.76
2017-12-29T15:41:05.213Z,1.70
2017-12-29T15:47:08.716Z,1.72
2017-12-29T15:53:12.181Z,1.59
2017-12-29T15:59:15.634Z,1.45
2017-12-29T16:05:19.193Z,1.42
2017-12-29T16:11:22.909Z,1.45
2017-12-29T16:17:28.012Z,1.62
2017-12-29T16:23:31.555Z,1.60
2017-12-29T16:29:35.084Z,1.63
2017-12-29T16:35:38.564Z,1.59
2017-12-29T16:41:42.036Z,1.63
2017-12-29T16:47:45.562Z,1.59
2017-12-29T16:53:51.183Z,1.67
2017-12-29T16:59:55.090Z,1.82
2017-12-29T17:05:58.781Z,1.94
2017-12-29T17:12:02.381Z,1.95
2017-12-29T17:18:06.227Z,1.88
2017-12-29T17:24:10.610Z,1.87
2017-12-29T17:30:14.215Z,1.83
2017-12-29T17:36:17.840Z,1.79
2017-12-29T17:42:22.189Z,1.88
2017-12-29T17:48:25.704Z,1.95
2017-12-29T17:54:29.333Z,2.06
2017-12-29T18:00:32.893Z,2.02
2017-12-29T18:06:37.395Z,2.00
2017-12-29T18:12:41.203Z,1.90
2017-12-29T18:18:45.473Z,1.90
2017-12-29T18:24:49.886Z,1.71
2017-12-29T18:30:53.849Z,1.55
2017-12-29T18:36:57.478Z,1.25
2017-12-29T18:43:00.993Z,1.16
2017-12-29T18:49:04.639Z,1.05
2017-12-29T18:55:08.131Z,0.96
2017-12-29T19:01:11.659Z,0.91
2017-12-29T19:07:15.424Z,0.95
2017-12-29T19:13:19.067Z,0.97
2017-12-29T19:19:24.039Z,0.92
2017-12-29T19:25:28.317Z,0.92
2017-12-29T19:31:32.085Z,0.96
2017-12-29T19:37:35.743Z,1.03
2017-12-29T19:43:40.097Z,1.08
2017-12-29T19:49:43.603Z,1.14
2017-12-29T19:55:48.248Z,1.07
2017-12-29T20:01:52.512Z,1.09
2017-12-29T20:07:56.320Z,1.13
2017-12-29T20:14:00.628Z,1.16
2017-12-29T20:20:04.147Z,1.21
2017-12-29T20:26:08.447Z,1.25
2017-12-29T20:32:11.959Z,1.21
2017-12-29T20:38:15.476Z,1.32
2017-12-29T20:44:18.982Z,1.34
2017-12-29T20:50:23.288Z,1.25
2017-12-29T20:56:26.746Z,1.42
2017-12-29T21:02:30.342Z,1.36
2017-12-29T21:08:34.622Z,1.42
2017-12-29T21:14:38.108Z,1.40
2017-12-29T21:20:41.587Z,1.35
2017-12-29T21:26:45.105Z,1.36
2017-12-29T21:32:49.382Z,1.38
2017-12-29T21:38:53.816Z,1.24
2017-12-29T21:44:57.651Z,1.22
2017-12-29T21:51:01.266Z,1.24
2017-12-29T21:57:05.578Z,1.20
2017-12-29T22:03:09.093Z,1.13
2017-12-29T22:09:13.449Z,1.09
2017-12-29T22:15:16.925Z,1.05
2017-12-29T22:21:22.000Z,2.01
2017-12-29T22:27:26.528Z,1.40
2017-12-29T22:33:30.295Z,1.28
2017-12-29T22:39:33.776Z,1.17
2017-12-29T22:45:37.449Z,1.16
2017-12-29T22:51:40.945Z,1.12
2017-12-29T22:57:44.600Z,1.10
2017-12-29T23:03:48.196Z,1.05
2017-12-29T23:09:52.417Z,1.13
2017-12-29T23:15:56.041Z,1.08
2017-12-29T23:22:00.340Z,1.07
2017-12-29T23:28:03.959Z,1.04
2017-12-29T23:34:07.548Z,1.10
2017-12-29T23:40:12.006Z,1.10
2017-12-29T23:46:16.288Z,1.12
2017-12-29T23:52:20.940Z,1.17
2017-12-29T23:58:25.207Z,1.12
